Time;durP1;ratioP1;P1;durP2;ratioP2;P2;SDS_P1;SDS_P2;PMS_P1;PMS_P2;Temp;Humidity;BMP_temperature;BMP_pressure;BME280_temperature;BME280_humidity;BME280_pressure;Samples;Min_cycle;Max_cycle;Signal;HPM_P1;HPM_P2
2024/02/03 00:01:27;;;;;;;8.57;6.10;;;9.70;99.90;;;;;;5034566;28;20279;-57
2024/02/03 00:03:54;;;;;;;11.27;6.57;;;9.70;99.90;;;;;;5029909;28;20203;-51
2024/02/03 00:06:21;;;;;;;14.97;7.67;;;9.60;99.90;;;;;;5033631;28;20192;-55
2024/02/03 00:08:48;;;;;;;12.97;7.00;;;9.50;99.90;;;;;;5019320;28;20207;-51
2024/02/03 00:11:15;;;;;;;8.83;6.90;;;9.50;99.90;;;;;;5032343;28;20195;-55
2024/02/03 00:13:43;;;;;;;12.10;7.73;;;9.50;99.90;;;;;;5030836;28;20250;-53
2024/02/03 00:16:10;;;;;;;10.23;7.53;;;9.50;99.90;;;;;;5010802;28;20770;-54
2024/02/03 00:18:38;;;;;;;11.67;8.03;;;9.40;99.90;;;;;;5026461;28;20195;-55
2024/02/03 00:21:06;;;;;;;13.10;7.43;;;9.40;99.90;;;;;;5039342;28;20282;-53
2024/02/03 00:23:33;;;;;;;9.00;6.87;;;9.40;99.90;;;;;;5035561;28;20235;-54
2024/02/03 00:26:00;;;;;;;10.90;6.83;;;9.30;99.90;;;;;;5039126;28;20297;-55
2024/02/03 00:28:26;;;;;;;9.30;7.60;;;9.30;99.90;;;;;;5037158;28;20188;-56
2024/02/03 00:30:53;;;;;;;10.10;7.13;;;9.30;99.90;;;;;;5010773;28;20301;-51
2024/02/03 00:33:20;;;;;;;8.77;7.10;;;9.30;99.90;;;;;;5035653;28;20585;-56
2024/02/03 00:35:49;;;;;;;11.47;7.50;;;9.30;99.90;;;;;;5031288;28;20194;-56
2024/02/03 00:38:16;;;;;;;10.73;6.87;;;9.30;99.90;;;;;;5033673;28;20243;-57
2024/02/03 00:40:42;;;;;;;10.50;7.37;;;9.30;99.90;;;;;;5034063;28;20928;-51
2024/02/03 00:43:09;;;;;;;11.47;7.00;;;9.30;99.90;;;;;;5035511;28;20222;-55
2024/02/03 00:45:36;;;;;;;7.90;6.63;;;9.20;99.90;;;;;;4998916;28;22518;-53
2024/02/03 00:48:03;;;;;;;7.73;6.83;;;9.20;99.90;;;;;;5048542;28;20215;-52
2024/02/03 00:50:30;;;;;;;11.33;6.47;;;9.30;99.90;;;;;;5002434;28;20203;-58
2024/02/03 00:52:59;;;;;;;9.63;5.73;;;9.20;99.90;;;;;;5038375;28;20876;-50
2024/02/03 00:55:26;;;;;;;7.07;5.63;;;9.20;99.90;;;;;;5034696;28;20199;-59
2024/02/03 00:57:53;;;;;;;8.10;6.40;;;9.20;99.90;;;;;;5036817;28;20214;-51
2024/02/03 01:00:23;;;;;;;7.67;6.53;;;9.30;99.90;;;;;;5020218;28;20680;-58
2024/02/03 01:02:50;;;;;;;7.23;5.80;;;9.20;99.90;;;;;;5029245;28;20219;-54
2024/02/03 01:05:17;;;;;;;6.90;6.27;;;9.20;99.90;;;;;;5027039;28;20199;-52
2024/02/03 01:07:44;;;;;;;9.13;6.17;;;9.30;99.90;;;;;;5033515;28;20192;-51
2024/02/03 01:10:12;;;;;;;7.40;5.87;;;9.30;99.90;;;;;;5028253;28;20195;-57
2024/02/03 01:12:39;;;;;;;9.03;6.10;;;9.30;99.90;;;;;;5029151;28;20228;-52
2024/02/03 01:15:07;;;;;;;6.87;6.00;;;9.30;99.90;;;;;;5027582;28;20223;-59
2024/02/03 01:17:34;;;;;;;6.30;5.57;;;9.30;99.90;;;;;;5005032;28;20207;-51
2024/02/03 01:20:02;;;;;;;7.33;6.63;;;9.30;99.90;;;;;;5028263;28;20287;-58
2024/02/03 01:22:29;;;;;;;10.27;6.33;;;9.30;99.90;;;;;;5033349;28;20235;-56
2024/02/03 01:24:58;;;;;;;7.83;6.13;;;9.30;99.90;;;;;;5031231;28;20208;-58
2024/02/03 01:27:27;;;;;;;8.77;6.47;;;9.30;99.90;;;;;;5028121;28;20188;-50
2024/02/03 01:29:56;;;;;;;10.07;6.03;;;9.30;99.90;;;;;;5032671;28;20199;-57
2024/02/03 01:32:23;;;;;;;9.50;6.50;;;9.30;99.90;;;;;;5008241;28;20247;-56
2024/02/03 01:34:50;;;;;;;7.80;5.87;;;9.30;99.90;;;;;;5034437;28;20196;-50
2024/02/03 01:37:16;;;;;;;7.40;6.63;;;9.30;99.90;;;;;;5024938;28;20733;-53
2024/02/03 01:39:43;;;;;;;10.93;6.27;;;9.30;99.90;;;;;;5031818;28;20207;-54
2024/02/03 01:42:10;;;;;;;13.07;7.70;;;9.30;99.90;;;;;;5029395;28;20717;-57
2024/02/03 01:44:39;;;;;;;11.37;7.10;;;9.30;99.90;;;;;;5032584;28;20199;-54
2024/02/03 01:47:06;;;;;;;10.20;6.70;;;9.30;99.90;;;;;;5011660;28;20236;-58
2024/02/03 01:49:33;;;;;;;15.17;8.07;;;9.30;99.90;;;;;;5025194;28;20201;-53
2024/02/03 01:52:00;;;;;;;10.00;7.60;;;9.30;99.90;;;;;;5023402;28;20230;-56
2024/02/03 01:54:29;;;;;;;9.17;7.63;;;9.30;99.90;;;;;;5028178;28;20215;-54
2024/02/03 01:56:58;;;;;;;11.87;8.07;;;9.40;99.90;;;;;;5029995;28;20211;-58
2024/02/03 01:59:27;;;;;;;14.03;7.43;;;9.40;99.90;;;;;;5029214;28;20463;-51
2024/02/03 02:01:57;;;;;;;11.80;7.73;;;9.40;99.90;;;;;;5028649;28;20303;-57
2024/02/03 02:04:25;;;;;;;9.53;7.73;;;9.40;99.90;;;;;;5018038;28;20196;-53
2024/02/03 02:06:52;;;;;;;13.07;7.00;;;9.40;99.90;;;;;;5028548;28;20211;-53
2024/02/03 02:09:20;;;;;;;9.13;7.10;;;9.40;99.90;;;;;;5030345;28;20183;-51
2024/02/03 02:11:47;;;;;;;12.73;8.40;;;9.40;99.90;;;;;;5028423;28;20229;-50
2024/02/03 02:14:14;;;;;;;11.20;8.00;;;9.40;99.90;;;;;;5029588;28;20197;-50
2024/02/03 02:16:41;;;;;;;11.07;7.73;;;9.40;99.90;;;;;;5025670;28;20207;-54
2024/02/03 02:19:09;;;;;;;15.23;8.37;;;9.40;99.90;;;;;;5000107;28;20207;-58
2024/02/03 02:21:37;;;;;;;12.73;7.57;;;9.40;99.90;;;;;;5029035;28;20199;-51
2024/02/03 02:24:05;;;;;;;9.87;7.57;;;9.40;99.90;;;;;;5026844;28;20201;-56
2024/02/03 02:26:32;;;;;;;12.30;7.37;;;9.50;99.90;;;;;;5029012;28;20188;-52
2024/02/03 02:28:59;;;;;;;9.90;6.80;;;9.40;99.90;;;;;;5031118;28;20664;-56
2024/02/03 02:31:26;;;;;;;14.97;7.93;;;9.50;99.90;;;;;;5028286;28;20271;-51
2024/02/03 02:33:53;;;;;;;11.57;6.97;;;9.50;99.90;;;;;;5007619;28;20215;-57
2024/02/03 02:36:20;;;;;;;11.40;6.90;;;9.50;99.90;;;;;;5028479;28;20203;-53
2024/02/03 02:38:48;;;;;;;12.27;6.80;;;9.50;99.90;;;;;;5029600;28;20579;-51
2024/02/03 02:41:15;;;;;;;11.20;6.33;;;9.50;99.90;;;;;;5033727;28;20257;-51
2024/02/03 02:43:42;;;;;;;13.37;6.50;;;9.40;99.90;;;;;;5034199;28;20211;-54
2024/02/03 02:46:10;;;;;;;10.20;6.30;;;9.50;99.90;;;;;;5031589;28;20191;-58
2024/02/03 02:48:36;;;;;;;16.33;5.60;;;9.50;99.90;;;;;;5011670;28;20211;-54
2024/02/03 02:51:04;;;;;;;14.10;6.20;;;9.50;99.90;;;;;;5027737;28;20195;-57
2024/02/03 02:53:31;;;;;;;11.70;5.87;;;9.50;99.90;;;;;;5029933;28;20227;-54
2024/02/03 02:55:59;;;;;;;11.63;5.70;;;9.50;99.90;;;;;;5036262;28;20199;-58
2024/02/03 02:58:26;;;;;;;15.10;5.83;;;9.50;99.90;;;;;;5027775;28;20298;-52
2024/02/03 03:00:53;;;;;;;10.10;5.20;;;9.50;99.90;;;;;;5030693;28;20200;-57
2024/02/03 03:03:20;;;;;;;13.03;5.03;;;9.50;99.90;;;;;;5028601;28;20234;-50
2024/02/03 03:05:47;;;;;;;15.37;5.20;;;9.50;99.90;;;;;;5006480;28;20204;-58
2024/02/03 03:08:14;;;;;;;13.47;5.03;;;9.40;99.90;;;;;;5031000;28;21045;-51
2024/02/03 03:10:41;;;;;;;11.30;4.67;;;9.50;99.90;;;;;;5041914;28;20640;-57
2024/02/03 03:13:09;;;;;;;13.87;4.87;;;9.40;99.90;;;;;;5025375;28;20254;-50
2024/02/03 03:15:36;;;;;;;12.87;4.43;;;9.40;99.90;;;;;;5030666;28;20207;-52
2024/02/03 03:18:03;;;;;;;14.67;5.07;;;9.50;99.90;;;;;;5037342;28;20211;-52
2024/02/03 03:20:30;;;;;;;17.07;4.80;;;9.40;99.90;;;;;;5018268;28;20202;-50
2024/02/03 03:22:57;;;;;;;16.07;4.77;;;9.40;99.90;;;;;;5045653;28;20238;-57
2024/02/03 03:25:23;;;;;;;11.23;4.07;;;9.40;99.90;;;;;;5028944;28;20227;-54
2024/02/03 03:27:51;;;;;;;11.50;3.90;;;9.40;99.90;;;;;;5039680;28;20590;-56
2024/02/03 03:30:19;;;;;;;11.97;4.13;;;9.40;99.90;;;;;;5036630;28;20187;-52
2024/02/03 03:32:46;;;;;;;9.03;3.80;;;9.50;99.90;;;;;;5034226;28;20347;-57
2024/02/03 03:35:12;;;;;;;8.90;3.40;;;9.40;99.90;;;;;;5034131;28;20863;-53
2024/02/03 03:37:39;;;;;;;11.50;4.23;;;9.40;99.90;;;;;;5014666;28;20219;-51
2024/02/03 03:40:08;;;;;;;15.50;4.60;;;9.50;99.90;;;;;;5030277;28;20292;-54
2024/02/03 03:42:35;;;;;;;8.23;4.53;;;9.40;99.90;;;;;;5030550;28;20231;-51
2024/02/03 03:45:01;;;;;;;6.97;4.13;;;9.50;99.90;;;;;;5031020;28;20241;-51
2024/02/03 03:47:30;;;;;;;12.33;4.37;;;9.40;99.90;;;;;;5031809;28;20242;-55
2024/02/03 03:49:57;;;;;;;11.70;4.50;;;9.40;99.90;;;;;;5028511;28;20640;-57
2024/02/03 03:52:24;;;;;;;11.57;4.07;;;9.40;99.90;;;;;;5004140;28;20215;-57
2024/02/03 03:54:51;;;;;;;16.93;4.40;;;9.40;99.90;;;;;;5027970;28;20196;-57
2024/02/03 03:57:17;;;;;;;13.90;5.70;;;9.40;99.90;;;;;;5024509;28;20273;-51
2024/02/03 03:59:44;;;;;;;18.77;5.30;;;9.40;99.90;;;;;;5037848;28;20656;-58
2024/02/03 04:02:14;;;;;;;13.27;6.17;;;9.40;99.90;;;;;;5026628;28;20766;-55
2024/02/03 04:04:42;;;;;;;15.60;4.93;;;9.50;99.90;;;;;;5028765;28;20200;-58
2024/02/03 04:07:08;;;;;;;14.30;4.50;;;9.40;99.90;;;;;;4999084;28;20212;-56
2024/02/03 04:09:35;;;;;;;14.63;5.97;;;9.40;99.90;;;;;;5027592;28;20623;-52
2024/02/03 04:12:02;;;;;;;13.27;5.23;;;9.40;99.90;;;;;;5019067;28;20300;-51
2024/02/03 04:14:29;;;;;;;16.20;5.40;;;9.40;99.90;;;;;;5039775;28;20200;-54
2024/02/03 04:16:56;;;;;;;8.17;4.20;;;9.50;99.90;;;;;;5030818;28;20203;-58
2024/02/03 04:19:23;;;;;;;10.10;4.60;;;9.40;99.90;;;;;;5040882;28;20226;-53
2024/02/03 04:21:51;;;;;;;12.40;5.03;;;9.40;99.90;;;;;;5038032;28;20211;-57
2024/02/03 04:24:17;;;;;;;8.17;3.77;;;9.50;99.90;;;;;;5008364;28;20215;-52
2024/02/03 04:26:44;;;;;;;15.17;5.17;;;9.40;99.90;;;;;;5029730;28;20199;-58
2024/02/03 04:29:11;;;;;;;16.13;4.17;;;9.50;99.90;;;;;;5026169;28;20195;-53
2024/02/03 04:31:42;;;;;;;18.03;5.57;;;9.40;99.90;;;;;;5035270;28;20305;-55
2024/02/03 04:34:09;;;;;;;12.53;4.53;;;9.50;99.90;;;;;;5030524;28;20327;-54
2024/02/03 04:36:36;;;;;;;16.53;4.40;;;9.40;99.90;;;;;;5031584;28;20208;-56
2024/02/03 04:39:05;;;;;;;10.07;4.30;;;9.50;99.90;;;;;;4984295;28;21116;-53
2024/02/03 04:41:31;;;;;;;18.37;4.63;;;9.50;99.90;;;;;;5043463;28;20635;-54
2024/02/03 04:43:58;;;;;;;17.13;4.53;;;9.50;99.90;;;;;;5021301;28;20211;-53
2024/02/03 04:46:25;;;;;;;8.37;4.93;;;9.40;99.90;;;;;;5031498;28;20262;-52
2024/02/03 04:48:53;;;;;;;10.60;4.63;;;9.50;99.90;;;;;;5027826;28;20204;-56
2024/02/03 04:51:19;;;;;;;6.87;3.80;;;9.50;99.90;;;;;;5028477;28;20198;-52
2024/02/03 04:53:46;;;;;;;14.73;4.13;;;9.50;99.90;;;;;;5010588;28;20192;-57
2024/02/03 04:56:14;;;;;;;13.00;4.43;;;9.50;99.90;;;;;;5023382;28;21000;-49
2024/02/03 04:58:41;;;;;;;11.87;4.23;;;9.50;99.90;;;;;;5037331;28;20219;-56
2024/02/03 05:01:09;;;;;;;15.67;4.10;;;9.50;99.90;;;;;;5018983;28;20223;-52
2024/02/03 05:03:37;;;;;;;17.33;4.53;;;9.50;99.90;;;;;;5030748;28;20215;-53
2024/02/03 05:06:04;;;;;;;13.80;4.53;;;9.50;99.90;;;;;;5038666;28;20240;-58
2024/02/03 05:08:31;;;;;;;10.47;4.43;;;9.50;99.90;;;;;;5030067;28;20211;-51
2024/02/03 05:10:59;;;;;;;11.50;4.80;;;9.50;99.90;;;;;;5009890;28;20207;-54
2024/02/03 05:13:28;;;;;;;11.90;4.33;;;9.50;99.90;;;;;;5036444;28;20265;-57
2024/02/03 05:15:55;;;;;;;9.43;4.23;;;9.50;99.90;;;;;;5031033;28;20207;-53
2024/02/03 05:18:22;;;;;;;10.40;4.30;;;9.50;99.90;;;;;;5031664;28;20269;-58
2024/02/03 05:20:49;;;;;;;11.83;4.30;;;9.60;99.90;;;;;;5028853;28;20204;-55
2024/02/03 05:23:16;;;;;;;14.77;5.13;;;9.50;99.90;;;;;;5026129;28;20246;-56
2024/02/03 05:25:43;;;;;;;9.67;4.20;;;9.60;99.90;;;;;;5000214;28;20229;-53
2024/02/03 05:28:09;;;;;;;10.43;3.87;;;9.60;99.90;;;;;;5036351;28;20199;-52
2024/02/03 05:30:38;;;;;;;16.10;4.63;;;9.60;99.90;;;;;;5028916;28;20200;-54
2024/02/03 05:33:05;;;;;;;8.43;4.40;;;9.60;99.90;;;;;;5031894;28;20314;-55
2024/02/03 05:35:32;;;;;;;9.73;4.27;;;9.60;99.90;;;;;;5027739;28;20261;-53
2024/02/03 05:37:59;;;;;;;9.63;4.57;;;9.60;99.90;;;;;;5027188;28;20272;-55
2024/02/03 05:40:26;;;;;;;11.10;4.67;;;9.60;99.90;;;;;;5025629;28;20196;-55
2024/02/03 05:42:53;;;;;;;8.70;3.90;;;9.60;99.90;;;;;;5010141;28;20254;-53
2024/02/03 05:45:22;;;;;;;12.57;4.83;;;9.70;99.90;;;;;;5029052;28;20204;-58
2024/02/03 05:47:50;;;;;;;12.87;4.20;;;9.70;99.90;;;;;;5026947;28;20203;-51
2024/02/03 05:50:17;;;;;;;13.30;3.83;;;9.70;99.90;;;;;;5027784;28;20203;-58
2024/02/03 05:52:43;;;;;;;11.73;3.87;;;9.70;99.90;;;;;;5027749;28;20227;-54
2024/02/03 05:55:11;;;;;;;15.13;4.17;;;9.70;99.90;;;;;;5040802;28;20199;-56
2024/02/03 05:57:48;;;;;;;10.27;3.70;;;9.70;99.90;;;;;;5009508;28;20282;-50
2024/02/03 06:00:16;;;;;;;12.87;3.93;;;9.70;99.90;;;;;;5035928;28;20235;-58
2024/02/03 06:02:42;;;;;;;17.93;4.30;;;9.70;99.90;;;;;;5025697;28;20230;-52
2024/02/03 06:05:11;;;;;;;12.50;3.97;;;9.80;99.90;;;;;;5042372;28;20223;-51
2024/02/03 06:07:38;;;;;;;10.37;4.40;;;9.70;99.90;;;;;;5038661;28;20261;-51
2024/02/03 06:10:06;;;;;;;11.80;3.70;;;9.80;99.90;;;;;;5035025;28;20721;-52
2024/02/03 06:12:33;;;;;;;10.60;3.87;;;9.80;99.90;;;;;;5006659;28;20227;-54
2024/02/03 06:15:00;;;;;;;11.90;3.57;;;9.80;99.90;;;;;;5044441;28;20225;-54
2024/02/03 06:17:26;;;;;;;7.17;3.30;;;9.80;99.90;;;;;;5035340;28;20668;-58
2024/02/03 06:19:54;;;;;;;8.80;3.20;;;9.80;99.90;;;;;;5044391;28;20215;-51
2024/02/03 06:22:22;;;;;;;10.10;3.33;;;9.80;99.90;;;;;;5035676;28;20301;-58
2024/02/03 06:24:49;;;;;;;12.43;3.73;;;9.80;99.90;;;;;;5033320;28;22228;-50
2024/02/03 06:27:15;;;;;;;10.67;3.00;;;9.80;99.90;;;;;;5035377;28;20192;-57
2024/02/03 06:29:42;;;;;;;10.20;3.93;;;9.90;99.90;;;;;;5008379;28;20199;-55
2024/02/03 06:32:09;;;;;;;10.43;3.20;;;9.90;99.90;;;;;;5036430;28;20215;-50
2024/02/03 06:34:36;;;;;;;13.70;3.53;;;9.90;99.90;;;;;;5020977;28;20769;-52
2024/02/03 06:37:04;;;;;;;10.53;3.50;;;9.90;99.90;;;;;;5034886;28;20261;-52
2024/02/03 06:39:32;;;;;;;7.37;2.93;;;9.90;99.90;;;;;;5030055;28;20222;-54
2024/02/03 06:41:59;;;;;;;8.03;3.33;;;9.90;99.90;;;;;;5033705;28;20215;-53
2024/02/03 06:44:26;;;;;;;6.73;3.40;;;9.90;99.90;;;;;;5011810;28;20206;-57
2024/02/03 06:46:53;;;;;;;7.20;2.73;;;9.90;99.90;;;;;;5043673;28;20334;-59
2024/02/03 06:49:19;;;;;;;7.27;2.70;;;9.90;99.90;;;;;;5022547;28;20192;-57
2024/02/03 06:51:46;;;;;;;11.03;2.83;;;9.90;99.90;;;;;;5031395;28;20204;-55
2024/02/03 06:54:13;;;;;;;7.23;2.67;;;9.90;99.90;;;;;;5033338;28;20204;-56
2024/02/03 06:56:41;;;;;;;9.50;2.67;;;10.00;99.90;;;;;;5028083;28;20204;-50
2024/02/03 06:59:08;;;;;;;9.43;2.60;;;10.00;99.90;;;;;;5004908;28;20293;-50
2024/02/03 07:01:35;;;;;;;7.13;2.77;;;9.90;99.90;;;;;;5035275;28;20274;-52
2024/02/03 07:04:01;;;;;;;4.63;2.30;;;9.90;99.90;;;;;;5027581;28;20261;-52
2024/02/03 07:06:28;;;;;;;12.47;2.83;;;10.00;99.90;;;;;;5024274;28;20261;-52
2024/02/03 07:08:55;;;;;;;12.47;2.37;;;10.00;99.90;;;;;;5029201;28;20749;-57
2024/02/03 07:11:22;;;;;;;12.23;2.90;;;10.00;99.90;;;;;;5013098;28;20297;-53
2024/02/03 07:13:50;;;;;;;8.47;2.73;;;10.00;99.90;;;;;;5028101;28;20254;-57
2024/02/03 07:16:17;;;;;;;5.43;2.57;;;10.00;99.90;;;;;;5015442;28;20235;-49
2024/02/03 07:18:44;;;;;;;11.40;3.33;;;9.90;99.90;;;;;;5034563;28;20215;-51
2024/02/03 07:21:10;;;;;;;10.73;3.07;;;10.00;99.90;;;;;;5018495;28;20266;-50
2024/02/03 07:23:37;;;;;;;7.77;2.40;;;9.90;99.90;;;;;;5029052;28;20247;-49
2024/02/03 07:26:05;;;;;;;6.50;2.43;;;10.00;99.90;;;;;;5018724;28;20233;-57
2024/02/03 07:28:31;;;;;;;14.60;2.60;;;10.00;99.90;;;;;;5043758;28;20192;-54
2024/02/03 07:30:59;;;;;;;11.73;3.73;;;10.00;99.90;;;;;;5007560;28;20207;-56
2024/02/03 07:33:26;;;;;;;6.77;2.93;;;10.00;99.90;;;;;;5036668;28;20270;-50
2024/02/03 07:35:53;;;;;;;9.40;2.77;;;10.00;99.90;;;;;;5024084;28;20282;-57
2024/02/03 07:38:20;;;;;;;8.37;2.73;;;10.00;99.90;;;;;;5034679;28;20219;-50
2024/02/03 07:40:47;;;;;;;9.43;3.30;;;10.00;99.90;;;;;;5028469;28;20281;-56
2024/02/03 07:43:14;;;;;;;10.03;3.40;;;10.00;99.90;;;;;;5025669;28;20957;-51
2024/02/03 07:45:40;;;;;;;10.27;3.30;;;10.00;99.90;;;;;;5008562;28;20215;-51
2024/02/03 07:48:09;;;;;;;13.23;3.67;;;10.00;99.90;;;;;;5035458;28;20880;-50
2024/02/03 07:50:35;;;;;;;10.17;3.33;;;10.00;99.90;;;;;;5029810;28;20219;-50
2024/02/03 07:53:02;;;;;;;12.07;3.43;;;10.00;99.90;;;;;;5032340;28;20218;-56
2024/02/03 07:55:29;;;;;;;8.00;3.20;;;10.00;99.90;;;;;;5033745;28;20200;-51
2024/02/03 07:57:56;;;;;;;8.97;2.87;;;10.00;99.90;;;;;;5032486;28;20214;-56
2024/02/03 08:00:23;;;;;;;7.90;3.40;;;10.00;99.90;;;;;;5023245;28;20234;-55
2024/02/03 08:02:49;;;;;;;12.67;3.60;;;10.00;99.90;;;;;;5011471;28;20251;-53
2024/02/03 08:05:17;;;;;;;12.20;3.17;;;10.00;99.90;;;;;;5020846;28;20239;-52
2024/02/03 08:07:44;;;;;;;12.73;3.60;;;10.00;99.90;;;;;;5028576;28;20207;-57
2024/02/03 08:10:11;;;;;;;12.27;3.27;;;10.00;99.90;;;;;;5031999;28;20188;-52
2024/02/03 08:12:38;;;;;;;9.50;2.73;;;10.00;99.90;;;;;;5036524;28;20275;-52
2024/02/03 08:15:06;;;;;;;7.67;2.70;;;10.00;99.90;;;;;;5030084;28;20229;-56
2024/02/03 08:17:33;;;;;;;14.40;4.00;;;10.00;99.90;;;;;;5014145;28;20212;-49
2024/02/03 08:19:59;;;;;;;7.47;3.00;;;10.00;99.90;;;;;;5028629;28;20211;-58
2024/02/03 08:22:28;;;;;;;9.90;3.20;;;9.90;99.90;;;;;;5021462;28;20304;-53
2024/02/03 08:24:55;;;;;;;16.60;4.20;;;9.90;99.90;;;;;;5041667;28;20195;-57
2024/02/03 08:27:21;;;;;;;14.30;3.90;;;9.90;99.90;;;;;;5020500;28;20249;-52
2024/02/03 08:29:48;;;;;;;13.10;3.70;;;10.00;99.90;;;;;;5031379;28;20265;-57
2024/02/03 08:32:16;;;;;;;12.37;4.03;;;9.90;99.90;;;;;;5006609;28;20317;-53
2024/02/03 08:34:44;;;;;;;8.40;3.10;;;10.00;99.90;;;;;;5041227;28;20196;-55
2024/02/03 08:37:10;;;;;;;9.50;3.33;;;9.90;99.90;;;;;;5023354;28;20207;-54
2024/02/03 08:39:39;;;;;;;17.17;3.53;;;10.00;99.90;;;;;;5024068;28;20621;-51
2024/02/03 08:42:06;;;;;;;9.60;3.97;;;10.00;99.90;;;;;;5026586;28;20222;-52
2024/02/03 08:44:33;;;;;;;12.23;3.60;;;10.00;99.90;;;;;;5016450;28;20195;-51
2024/02/03 08:47:00;;;;;;;9.30;3.43;;;10.00;99.90;;;;;;5026437;28;20200;-57
2024/02/03 08:49:28;;;;;;;18.17;3.93;;;10.00;99.90;;;;;;5004812;28;20287;-51
2024/02/03 08:51:55;;;;;;;12.87;3.67;;;10.00;99.90;;;;;;5029772;28;20231;-56
2024/02/03 08:54:22;;;;;;;15.07;3.53;;;10.00;99.90;;;;;;5026954;28;20230;-54
2024/02/03 08:56:50;;;;;;;15.93;3.57;;;10.00;99.90;;;;;;5033223;28;20523;-55
2024/02/03 08:59:17;;;;;;;13.60;3.67;;;10.00;99.90;;;;;;5021172;28;21849;-52
2024/02/03 09:01:44;;;;;;;17.50;3.30;;;10.00;99.90;;;;;;5030896;28;20230;-54
2024/02/03 09:04:11;;;;;;;11.27;3.50;;;10.10;99.90;;;;;;4996220;28;20235;-56
2024/02/03 09:06:39;;;;;;;12.70;3.63;;;10.10;99.90;;;;;;5028492;28;20199;-49
2024/02/03 09:09:06;;;;;;;14.37;4.20;;;10.10;99.90;;;;;;5020464;28;20280;-55
2024/02/03 09:11:32;;;;;;;12.03;3.63;;;10.10;99.90;;;;;;5032163;28;20199;-51
2024/02/03 09:14:02;;;;;;;15.10;4.17;;;10.10;99.90;;;;;;5038585;28;20245;-52
2024/02/03 09:16:29;;;;;;;8.97;3.60;;;10.10;99.90;;;;;;5021932;28;20188;-50
2024/02/03 09:18:56;;;;;;;10.90;3.97;;;10.10;99.90;;;;;;5029497;28;20557;-49
2024/02/03 09:21:23;;;;;;;12.10;3.70;;;10.10;99.90;;;;;;4999466;28;20219;-51
2024/02/03 09:23:50;;;;;;;10.43;3.70;;;10.10;99.90;;;;;;5029788;28;20280;-49
2024/02/03 09:26:16;;;;;;;13.23;4.00;;;10.10;99.90;;;;;;5026649;28;20231;-57
2024/02/03 09:28:43;;;;;;;17.47;4.13;;;10.10;99.90;;;;;;5038324;28;20203;-57
2024/02/03 09:31:18;;;;;;;10.13;3.87;;;10.20;99.90;;;;;;5030989;28;20636;-57
2024/02/03 09:33:45;;;;;;;12.43;3.77;;;10.20;99.90;;;;;;5037258;28;20229;-51
2024/02/03 09:36:11;;;;;;;10.60;3.37;;;10.20;99.90;;;;;;5001850;28;20262;-55
2024/02/03 09:38:38;;;;;;;16.23;4.37;;;10.10;99.90;;;;;;5034466;28;20192;-53
2024/02/03 09:41:06;;;;;;;13.27;3.73;;;10.20;99.90;;;;;;5025853;28;20208;-58
2024/02/03 09:43:33;;;;;;;16.27;4.30;;;10.20;99.90;;;;;;5019993;28;20312;-52
2024/02/03 09:46:00;;;;;;;8.60;3.40;;;10.20;99.90;;;;;;5019850;28;20277;-57
2024/02/03 09:48:28;;;;;;;10.03;3.83;;;10.20;99.90;;;;;;5023469;28;20202;-57
2024/02/03 09:50:56;;;;;;;10.23;4.63;;;10.20;99.90;;;;;;5019546;28;20288;-57
2024/02/03 09:53:23;;;;;;;8.43;4.63;;;10.20;99.90;;;;;;5033854;28;20306;-49
2024/02/03 09:55:50;;;;;;;11.50;3.47;;;10.20;99.90;;;;;;5026137;28;20234;-56
2024/02/03 09:58:17;;;;;;;11.40;4.07;;;10.20;99.90;;;;;;5028458;28;20440;-53
2024/02/03 10:00:44;;;;;;;10.37;3.50;;;10.20;99.90;;;;;;5008981;28;20223;-53
2024/02/03 10:03:17;;;;;;;8.37;3.60;;;10.20;99.90;;;;;;5026696;28;20233;-50
2024/02/03 10:05:45;;;;;;;8.47;4.43;;;10.20;99.90;;;;;;5011458;28;20923;-52
2024/02/03 10:08:12;;;;;;;11.70;3.50;;;10.20;99.90;;;;;;5004141;28;20207;-50
2024/02/03 10:10:40;;;;;;;12.77;4.03;;;10.20;99.90;;;;;;5023183;28;20249;-57
2024/02/03 10:13:08;;;;;;;10.77;3.90;;;10.20;99.90;;;;;;5036520;28;20219;-51
2024/02/03 10:15:35;;;;;;;10.53;4.10;;;10.20;99.90;;;;;;5031304;28;20214;-50
2024/02/03 10:18:02;;;;;;;11.30;3.50;;;10.20;99.90;;;;;;5031970;28;20206;-52
2024/02/03 10:20:29;;;;;;;11.63;3.90;;;10.20;99.90;;;;;;5012054;28;20203;-58
2024/02/03 10:22:57;;;;;;;9.90;3.70;;;10.20;99.90;;;;;;5001264;28;20228;-53
2024/02/03 10:25:27;;;;;;;12.03;4.07;;;10.20;99.90;;;;;;5027439;28;20211;-55
2024/02/03 10:28:00;;;;;;;7.70;3.60;;;10.20;99.90;;;;;;5035467;28;20257;-54
2024/02/03 10:30:29;;;;;;;13.20;3.90;;;10.30;99.90;;;;;;5027035;28;20200;-55
2024/02/03 10:32:58;;;;;;;11.80;4.03;;;10.20;99.90;;;;;;5033691;28;20681;-51
2024/02/03 10:35:27;;;;;;;11.63;3.40;;;10.30;99.90;;;;;;5022826;28;20200;-56
2024/02/03 10:37:54;;;;;;;10.43;3.70;;;10.20;99.90;;;;;;5014664;28;20216;-54
2024/02/03 10:40:24;;;;;;;13.40;3.60;;;10.20;99.90;;;;;;5005454;28;20689;-56
2024/02/03 10:42:54;;;;;;;13.07;3.80;;;10.20;99.90;;;;;;5039974;28;20211;-54
2024/02/03 10:45:28;;;;;;;9.90;3.30;;;10.20;99.90;;;;;;5033666;28;20227;-56
2024/02/03 10:47:57;;;;;;;13.47;3.87;;;10.20;99.90;;;;;;5031710;28;20202;-50
2024/02/03 10:50:40;;;;;;;11.50;2.80;;;10.20;99.90;;;;;;5026767;28;20207;-56
2024/02/03 10:53:09;;;;;;;11.87;3.60;;;10.20;99.90;;;;;;5033816;28;20284;-53
2024/02/03 10:55:42;;;;;;;9.90;3.73;;;10.20;99.90;;;;;;5004051;28;20300;-51
2024/02/03 10:58:10;;;;;;;12.20;3.30;;;10.30;99.90;;;;;;5045226;28;20195;-54
2024/02/03 11:00:37;;;;;;;12.33;3.13;;;10.30;99.90;;;;;;5024709;28;20222;-50
2024/02/03 11:03:04;;;;;;;7.73;3.23;;;10.30;99.90;;;;;;5032239;28;20219;-54
2024/02/03 11:05:31;;;;;;;10.30;3.67;;;10.30;99.90;;;;;;5031356;28;20209;-57
2024/02/03 11:08:06;;;;;;;9.93;3.57;;;10.30;99.90;;;;;;5025131;28;20233;-52
2024/02/03 11:10:38;;;;;;;10.53;3.10;;;10.30;99.90;;;;;;4998839;28;20202;-54
2024/02/03 11:13:16;;;;;;;10.60;3.70;;;10.30;99.90;;;;;;5040072;28;20238;-50
2024/02/03 11:15:43;;;;;;;10.23;3.40;;;10.30;99.90;;;;;;5027486;28;20195;-54
2024/02/03 11:18:13;;;;;;;11.47;3.07;;;10.30;99.90;;;;;;5036000;28;20298;-54
2024/02/03 11:20:41;;;;;;;8.83;2.77;;;10.30;99.90;;;;;;5022490;28;20784;-53
2024/02/03 11:23:12;;;;;;;11.07;3.80;;;10.30;99.90;;;;;;5034338;28;20234;-58
2024/02/03 11:25:43;;;;;;;12.63;4.20;;;10.30;99.90;;;;;;5006654;28;20393;-51
2024/02/03 11:28:09;;;;;;;8.07;3.10;;;10.30;99.90;;;;;;5029075;28;20195;-57
2024/02/03 11:30:37;;;;;;;17.73;3.77;;;10.20;99.90;;;;;;5035802;28;20176;-53
2024/02/03 11:33:05;;;;;;;13.03;3.77;;;10.30;99.90;;;;;;5034550;28;20222;-54
2024/02/03 11:35:31;;;;;;;9.37;3.50;;;10.30;99.90;;;;;;5023838;28;20199;-50
2024/02/03 11:38:06;;;;;;;12.83;3.10;;;10.30;99.90;;;;;;5043467;28;20223;-55
2024/02/03 11:40:33;;;;;;;12.83;3.30;;;10.40;99.90;;;;;;4998557;28;25062;-50
2024/02/03 11:43:02;;;;;;;12.37;3.00;;;10.40;99.90;;;;;;5033884;28;20219;-48
2024/02/03 11:45:33;;;;;;;9.57;3.13;;;10.40;99.90;;;;;;5030079;28;20272;-53
2024/02/03 11:48:02;;;;;;;11.63;2.67;;;10.40;99.90;;;;;;5032657;28;20210;-48
2024/02/03 11:50:30;;;;;;;13.53;3.67;;;10.40;99.90;;;;;;5023948;28;22295;-48
2024/02/03 11:52:59;;;;;;;12.50;2.97;;;10.40;99.90;;;;;;5045814;28;20216;-53
2024/02/03 11:55:26;;;;;;;10.83;2.93;;;10.40;99.90;;;;;;4991025;28;20616;-52
2024/02/03 11:57:54;;;;;;;5.77;2.70;;;10.40;99.90;;;;;;5039016;28;20570;-49
2024/02/03 12:00:23;;;;;;;13.13;3.50;;;10.40;99.90;;;;;;5036998;28;20283;-56
2024/02/03 12:02:50;;;;;;;12.37;3.17;;;10.40;99.90;;;;;;5033318;28;20265;-50
2024/02/03 12:05:17;;;;;;;10.80;3.77;;;10.40;99.90;;;;;;5033214;28;20280;-57
2024/02/03 12:07:45;;;;;;;10.43;3.00;;;10.40;99.90;;;;;;5031555;28;20265;-56
2024/02/03 12:10:13;;;;;;;9.27;2.70;;;10.30;99.90;;;;;;5019255;28;20234;-50
2024/02/03 12:12:40;;;;;;;16.93;3.40;;;10.30;99.90;;;;;;5008340;28;20224;-56
2024/02/03 12:15:10;;;;;;;13.63;3.63;;;10.30;99.90;;;;;;5034415;28;20215;-48
2024/02/03 12:17:39;;;;;;;11.80;3.00;;;10.30;99.90;;;;;;5039008;28;20219;-53
2024/02/03 12:20:22;;;;;;;9.73;3.13;;;10.30;99.90;;;;;;5018952;28;20199;-53
2024/02/03 12:22:50;;;;;;;12.23;3.40;;;10.30;99.90;;;;;;5023290;28;21760;-55
2024/02/03 12:25:17;;;;;;;10.07;3.17;;;10.30;99.90;;;;;;5029472;28;20196;-50
2024/02/03 12:27:44;;;;;;;14.50;3.77;;;10.30;99.90;;;;;;5001091;28;20691;-55
2024/02/03 12:30:16;;;;;;;12.57;3.60;;;10.30;99.90;;;;;;5025825;28;20198;-53
2024/02/03 12:32:44;;;;;;;13.93;3.23;;;10.30;99.90;;;;;;5035830;28;20707;-54
2024/02/03 12:35:11;;;;;;;16.20;3.87;;;10.30;99.90;;;;;;5029999;28;20195;-53
2024/02/03 12:37:38;;;;;;;12.53;3.43;;;10.40;99.90;;;;;;5025907;28;20265;-57
2024/02/03 12:40:06;;;;;;;15.50;3.20;;;10.40;99.90;;;;;;5025784;28;20222;-50
2024/02/03 12:42:33;;;;;;;11.57;3.53;;;10.40;99.90;;;;;;4995440;28;20226;-50
2024/02/03 12:45:01;;;;;;;9.20;2.63;;;10.50;99.90;;;;;;5040711;28;20265;-54
2024/02/03 12:47:27;;;;;;;12.57;3.73;;;10.50;99.90;;;;;;5036035;28;20216;-51